sensor_id;sensor_type;location;lat;lon;timestamp;pressure;altitude;pressure_sealevel;temperature;humidity
61676;BME280;47574;52.090;5.244;2023-04-05T00:01:05;102517.0;;;10.77;45.16
61676;BME280;47574;52.090;5.244;2023-04-05T00:02:41;102526.0;;;10.49;45.4
61676;BME280;47574;52.090;5.244;2023-04-05T00:04:18;102522.0;;;10.45;45.8
61676;BME280;47574;52.090;5.244;2023-04-05T00:05:54;102520.0;;;10.29;45.9
61676;BME280;47574;52.090;5.244;2023-04-05T00:09:06;102519.0;;;10.31;45.84
61676;BME280;47574;52.090;5.244;2023-04-05T00:10:42;102516.00000000001;;;10.49;45.45
61676;BME280;47574;52.090;5.244;2023-04-05T00:12:18;102518.0;;;10.26;45.8
61676;BME280;47574;52.090;5.244;2023-04-05T00:15:36;102518.0;;;10.17;46.36
61676;BME280;47574;52.090;5.244;2023-04-05T00:17:12;102517.0;;;10.22;46.22
61676;BME280;47574;52.090;5.244;2023-04-05T00:18:48;102515.00000000001;;;10.06;46.4
61676;BME280;47574;52.090;5.244;2023-04-05T00:22:00;102514.00000000001;;;10.39;45.76
61676;BME280;47574;52.090;5.244;2023-04-05T00:23:36;102515.00000000001;;;10.36;45.68
61676;BME280;47574;52.090;5.244;2023-04-05T00:25:12;102515.00000000001;;;10.3;45.68
61676;BME280;47574;52.090;5.244;2023-04-05T00:26:48;102509.99999999999;;;10.24;45.83
61676;BME280;47574;52.090;5.244;2023-04-05T00:30:01;102508.99999999999;;;10.41;45.47
61676;BME280;47574;52.090;5.244;2023-04-05T00:31:37;102505.0;;;10.27;45.57
61676;BME280;47574;52.090;5.244;2023-04-05T00:33:13;102506.0;;;10.06;46.22
61676;BME280;47574;52.090;5.244;2023-04-05T00:36:25;102503.0;;;10.28;45.76
61676;BME280;47574;52.090;5.244;2023-04-05T00:38:02;102506.0;;;9.81;46.56
61676;BME280;47574;52.090;5.244;2023-04-05T00:39:38;102504.0;;;9.73;46.74
61676;BME280;47574;52.090;5.244;2023-04-05T00:42:50;102500.0;;;10.11;45.87
61676;BME280;47574;52.090;5.244;2023-04-05T00:44:26;102499.0;;;9.78;46.35
61676;BME280;47574;52.090;5.244;2023-04-05T00:46:04;102497.0;;;9.8;46.53
61676;BME280;47574;52.090;5.244;2023-04-05T00:47:40;102499.0;;;9.63;46.73
61676;BME280;47574;52.090;5.244;2023-04-05T00:50:53;102500.0;;;9.91;46.06
61676;BME280;47574;52.090;5.244;2023-04-05T00:52:31;102497.0;;;9.85;46.05
61676;BME280;47574;52.090;5.244;2023-04-05T00:54:08;102494.0;;;9.85;46.11
61676;BME280;47574;52.090;5.244;2023-04-05T00:57:21;102491.00000000001;;;9.89;45.8
61676;BME280;47574;52.090;5.244;2023-04-05T00:58:58;102494.0;;;9.64;46.57
61676;BME280;47574;52.090;5.244;2023-04-05T01:00:35;102489.00000000001;;;9.82;46.04
61676;BME280;47574;52.090;5.244;2023-04-05T01:04:04;102488.00000000001;;;9.73;46.04
61676;BME280;47574;52.090;5.244;2023-04-05T01:05:43;102488.00000000001;;;9.73;45.9
61676;BME280;47574;52.090;5.244;2023-04-05T01:07:29;102484.99999999999;;;9.55;46.41
61676;BME280;47574;52.090;5.244;2023-04-05T01:09:13;102484.99999999999;;;9.64;46.16
61676;BME280;47574;52.090;5.244;2023-04-05T01:10:54;102483.99999999999;;;9.64;46.03
61676;BME280;47574;52.090;5.244;2023-04-05T01:14:12;102479.0;;;9.81;45.49
61676;BME280;47574;52.090;5.244;2023-04-05T01:15:49;102483.99999999999;;;9.73;45.61
61676;BME280;47574;52.090;5.244;2023-04-05T01:17:26;102475.0;;;9.85;45.23
61676;BME280;47574;52.090;5.244;2023-04-05T01:19:04;102478.0;;;9.92;45.14
61676;BME280;47574;52.090;5.244;2023-04-05T01:23:23;102479.0;;;9.78;45.41
61676;BME280;47574;52.090;5.244;2023-04-05T01:25:48;102477.0;;;9.35;46.29
61676;BME280;47574;52.090;5.244;2023-04-05T01:27:37;102473.0;;;9.64;45.5
61676;BME280;47574;52.090;5.244;2023-04-05T01:31:31;102473.0;;;9.42;45.81
61676;BME280;47574;52.090;5.244;2023-04-05T01:33:15;102471.0;;;9.49;45.77
61676;BME280;47574;52.090;5.244;2023-04-05T01:35:01;102467.0;;;9.1;46.46
61676;BME280;47574;52.090;5.244;2023-04-05T01:36:49;102467.0;;;9.23;46.2
61676;BME280;47574;52.090;5.244;2023-04-05T01:38:30;102464.00000000001;;;8.92;46.49
61676;BME280;47574;52.090;5.244;2023-04-05T01:40:08;102461.99999999999;;;9.14;46.34
61676;BME280;47574;52.090;5.244;2023-04-05T01:44:58;102467.0;;;8.81;46.85
61676;BME280;47574;52.090;5.244;2023-04-05T01:46:34;102456.0;;;9.06;46.34
61676;BME280;47574;52.090;5.244;2023-04-05T01:49:47;102463.00000000001;;;9.38;45.54
61676;BME280;47574;52.090;5.244;2023-04-05T01:51:23;102456.0;;;9.18;45.88
61676;BME280;47574;52.090;5.244;2023-04-05T01:52:59;102458.0;;;9.07;46.32
61676;BME280;47574;52.090;5.244;2023-04-05T01:54:35;102456.0;;;8.77;46.89
61676;BME280;47574;52.090;5.244;2023-04-05T01:57:48;102454.0;;;8.81;46.76
61676;BME280;47574;52.090;5.244;2023-04-05T01:59:24;102452.0;;;8.83;46.76
61676;BME280;47574;52.090;5.244;2023-04-05T02:01:00;102452.0;;;8.73;47.12
61676;BME280;47574;52.090;5.244;2023-04-05T02:04:12;102447.0;;;8.84;46.81
61676;BME280;47574;52.090;5.244;2023-04-05T02:05:49;102442.0;;;8.81;46.84
61676;BME280;47574;52.090;5.244;2023-04-05T02:07:25;102442.0;;;8.89;46.43
61676;BME280;47574;52.090;5.244;2023-04-05T02:10:38;102442.0;;;8.84;46.61
61676;BME280;47574;52.090;5.244;2023-04-05T02:12:14;102438.00000000001;;;8.92;46.2
61676;BME280;47574;52.090;5.244;2023-04-05T02:13:50;102442.0;;;8.83;46.32
61676;BME280;47574;52.090;5.244;2023-04-05T02:17:02;102443.0;;;8.82;46.13
61676;BME280;47574;52.090;5.244;2023-04-05T02:18:38;102441.00000000001;;;9.03;45.66
61676;BME280;47574;52.090;5.244;2023-04-05T02:20:14;102438.00000000001;;;8.75;46.21
61676;BME280;47574;52.090;5.244;2023-04-05T02:21:51;102433.0;;;8.6;46.56
61676;BME280;47574;52.090;5.244;2023-04-05T02:25:06;102433.0;;;8.59;46.55
61676;BME280;47574;52.090;5.244;2023-04-05T02:26:42;102427.0;;;8.48;46.95
61676;BME280;47574;52.090;5.244;2023-04-05T02:28:18;102429.0;;;8.81;46.14
61676;BME280;47574;52.090;5.244;2023-04-05T02:31:31;102425.0;;;8.83;45.95
61676;BME280;47574;52.090;5.244;2023-04-05T02:33:08;102427.0;;;8.77;46.12
61676;BME280;47574;52.090;5.244;2023-04-05T02:34:44;102426.0;;;8.83;46.14
61676;BME280;47574;52.090;5.244;2023-04-05T02:37:56;102427.0;;;8.72;46.09
61676;BME280;47574;52.090;5.244;2023-04-05T02:39:32;102424.0;;;8.48;46.75
61676;BME280;47574;52.090;5.244;2023-04-05T02:41:09;102419.0;;;8.48;46.85
61676;BME280;47574;52.090;5.244;2023-04-05T02:42:45;102418.0;;;8.51;46.65
61676;BME280;47574;52.090;5.244;2023-04-05T02:45:58;102420.0;;;8.76;45.99
61676;BME280;47574;52.090;5.244;2023-04-05T02:47:34;102420.0;;;8.64;46.1
61676;BME280;47574;52.090;5.244;2023-04-05T02:49:10;102417.0;;;8.64;46.28
61676;BME280;47574;52.090;5.244;2023-04-05T02:52:23;102417.0;;;8.58;46.3
61676;BME280;47574;52.090;5.244;2023-04-05T02:54:00;102416.00000000001;;;8.39;46.67
61676;BME280;47574;52.090;5.244;2023-04-05T02:55:36;102411.99999999999;;;8.77;46.04
61676;BME280;47574;52.090;5.244;2023-04-05T02:58:49;102414.00000000001;;;8.65;46.34
61676;BME280;47574;52.090;5.244;2023-04-05T03:00:25;102408.99999999999;;;8.61;46.2
61676;BME280;47574;52.090;5.244;2023-04-05T03:02:01;102407.0;;;8.34;46.91
61676;BME280;47574;52.090;5.244;2023-04-05T03:05:13;102402.0;;;8.36;46.89
61676;BME280;47574;52.090;5.244;2023-04-05T03:06:50;102402.0;;;8.41;46.66
61676;BME280;47574;52.090;5.244;2023-04-05T03:08:26;102398.0;;;8.1;47.48
61676;BME280;47574;52.090;5.244;2023-04-05T03:10:02;102396.0;;;8.47;46.66
61676;BME280;47574;52.090;5.244;2023-04-05T03:13:14;102395.0;;;8.36;46.96
61676;BME280;47574;52.090;5.244;2023-04-05T03:14:50;102392.0;;;8.39;46.75
61676;BME280;47574;52.090;5.244;2023-04-05T03:16:26;102394.0;;;8.4;46.71
61676;BME280;47574;52.090;5.244;2023-04-05T03:19:39;102395.0;;;8.26;47.03
61676;BME280;47574;52.090;5.244;2023-04-05T03:21:15;102387.0;;;8.18;47.19
61676;BME280;47574;52.090;5.244;2023-04-05T03:22:51;102386.0;;;8.19;47.07
61676;BME280;47574;52.090;5.244;2023-04-05T03:26:04;102386.0;;;8.19;46.99
61676;BME280;47574;52.090;5.244;2023-04-05T03:27:40;102385.0;;;8.1;46.88
61676;BME280;47574;52.090;5.244;2023-04-05T03:29:16;102388.0;;;7.8;47.84
61676;BME280;47574;52.090;5.244;2023-04-05T03:30:52;102386.0;;;8.03;47.45
61676;BME280;47574;52.090;5.244;2023-04-05T03:34:05;102382.0;;;8.2;46.8
61676;BME280;47574;52.090;5.244;2023-04-05T03:35:41;102383.0;;;8.02;47.06
61676;BME280;47574;52.090;5.244;2023-04-05T03:37:17;102385.0;;;7.91;47.36
61676;BME280;47574;52.090;5.244;2023-04-05T03:40:30;102388.0;;;7.84;47.69
61676;BME280;47574;52.090;5.244;2023-04-05T03:42:07;102387.0;;;8.24;46.7
61676;BME280;47574;52.090;5.244;2023-04-05T03:43:43;102382.0;;;8.17;46.67
61676;BME280;47574;52.090;5.244;2023-04-05T03:46:55;102378.0;;;8.0;46.97
61676;BME280;47574;52.090;5.244;2023-04-05T03:48:32;102380.0;;;8.1;46.7
61676;BME280;47574;52.090;5.244;2023-04-05T03:50:09;102380.0;;;8.28;46.36
61676;BME280;47574;52.090;5.244;2023-04-05T03:53:21;102377.0;;;7.86;47.39
61676;BME280;47574;52.090;5.244;2023-04-05T03:54:57;102380.0;;;8.01;47.04
61676;BME280;47574;52.090;5.244;2023-04-05T03:56:33;102378.0;;;8.24;46.57
61676;BME280;47574;52.090;5.244;2023-04-05T03:58:09;102380.0;;;8.06;46.9
61676;BME280;47574;52.090;5.244;2023-04-05T04:01:22;102381.0;;;7.98;46.94
61676;BME280;47574;52.090;5.244;2023-04-05T04:02:58;102383.0;;;7.84;47.21
61676;BME280;47574;52.090;5.244;2023-04-05T04:04:34;102383.0;;;7.89;47.19
61676;BME280;47574;52.090;5.244;2023-04-05T04:07:46;102386.0;;;8.17;46.59
61676;BME280;47574;52.090;5.244;2023-04-05T04:09:22;102388.0;;;7.92;47.2
61676;BME280;47574;52.090;5.244;2023-04-05T04:10:58;102385.0;;;8.0;46.92
61676;BME280;47574;52.090;5.244;2023-04-05T04:14:11;102380.0;;;8.15;46.66
61676;BME280;47574;52.090;5.244;2023-04-05T04:15:47;102383.0;;;8.13;46.7
61676;BME280;47574;52.090;5.244;2023-04-05T04:17:26;102382.0;;;8.25;46.23
61676;BME280;47574;52.090;5.244;2023-04-05T04:19:03;102378.0;;;8.41;45.7
61676;BME280;47574;52.090;5.244;2023-04-05T04:22:15;102380.0;;;8.35;45.74
61676;BME280;47574;52.090;5.244;2023-04-05T04:23:52;102380.0;;;8.22;46.27
61676;BME280;47574;52.090;5.244;2023-04-05T04:25:28;102380.0;;;8.2;46.18
61676;BME280;47574;52.090;5.244;2023-04-05T04:28:40;102378.0;;;8.23;46.08
61676;BME280;47574;52.090;5.244;2023-04-05T04:30:17;102373.0;;;8.5;45.7
61676;BME280;47574;52.090;5.244;2023-04-05T04:31:54;102376.0;;;8.47;45.72
61676;BME280;47574;52.090;5.244;2023-04-05T04:35:06;102373.0;;;8.52;45.33
61676;BME280;47574;52.090;5.244;2023-04-05T04:36:42;102373.0;;;8.28;45.9
61676;BME280;47574;52.090;5.244;2023-04-05T04:38:18;102380.0;;;8.27;45.98
61676;BME280;47574;52.090;5.244;2023-04-05T04:39:54;102371.0;;;7.87;46.59
61676;BME280;47574;52.090;5.244;2023-04-05T04:43:07;102381.0;;;7.73;47.01
61676;BME280;47574;52.090;5.244;2023-04-05T04:44:45;102383.0;;;7.79;46.87
61676;BME280;47574;52.090;5.244;2023-04-05T04:46:21;102380.0;;;8.16;46.24
61676;BME280;47574;52.090;5.244;2023-04-05T04:49:33;102378.0;;;8.09;46.3
61676;BME280;47574;52.090;5.244;2023-04-05T04:51:09;102375.0;;;7.87;46.67
61676;BME280;47574;52.090;5.244;2023-04-05T04:52:46;102377.0;;;7.96;46.45
61676;BME280;47574;52.090;5.244;2023-04-05T04:55:59;102377.0;;;7.83;46.89
61676;BME280;47574;52.090;5.244;2023-04-05T04:57:35;102373.0;;;7.62;47.4
61676;BME280;47574;52.090;5.244;2023-04-05T04:59:11;102369.0;;;7.99;46.71
61676;BME280;47574;52.090;5.244;2023-04-05T05:02:23;102370.0;;;7.66;47.18
61676;BME280;47574;52.090;5.244;2023-04-05T05:04:02;102376.0;;;7.71;47.13
61676;BME280;47574;52.090;5.244;2023-04-05T05:05:41;102377.0;;;8.09;46.43
61676;BME280;47574;52.090;5.244;2023-04-05T05:07:18;102374.0;;;8.11;46.3
61676;BME280;47574;52.090;5.244;2023-04-05T05:10:30;102370.0;;;7.8;46.79
61676;BME280;47574;52.090;5.244;2023-04-05T05:12:06;102371.0;;;8.0;46.43
61676;BME280;47574;52.090;5.244;2023-04-05T05:13:42;102373.0;;;8.16;46.23
61676;BME280;47574;52.090;5.244;2023-04-05T05:16:54;102372.0;;;8.13;46.33
61676;BME280;47574;52.090;5.244;2023-04-05T05:18:31;102368.0;;;7.99;46.58
61676;BME280;47574;52.090;5.244;2023-04-05T05:20:09;102365.0;;;7.86;46.84
61676;BME280;47574;52.090;5.244;2023-04-05T05:21:45;102370.0;;;7.87;46.82
61676;BME280;47574;52.090;5.244;2023-04-05T05:24:57;102370.0;;;7.88;46.7
61676;BME280;47574;52.090;5.244;2023-04-05T05:26:33;102370.0;;;7.94;46.68
61676;BME280;47574;52.090;5.244;2023-04-05T05:28:09;102369.0;;;7.77;47.03
61676;BME280;47574;52.090;5.244;2023-04-05T05:31:22;102367.0;;;7.85;47.13
61676;BME280;47574;52.090;5.244;2023-04-05T05:32:58;102370.0;;;8.03;46.69
61676;BME280;47574;52.090;5.244;2023-04-05T05:34:34;102369.0;;;8.03;46.73
61676;BME280;47574;52.090;5.244;2023-04-05T05:37:46;102371.0;;;7.72;47.36
61676;BME280;47574;52.090;5.244;2023-04-05T05:39:23;102365.0;;;7.78;47.14
61676;BME280;47574;52.090;5.244;2023-04-05T05:40:59;102366.0;;;7.94;46.73
61676;BME280;47574;52.090;5.244;2023-04-05T05:44:11;102363.0;;;7.86;46.82
61676;BME280;47574;52.090;5.244;2023-04-05T05:45:48;102367.0;;;8.15;46.3
61676;BME280;47574;52.090;5.244;2023-04-05T05:47:24;102368.0;;;8.08;46.32
61676;BME280;47574;52.090;5.244;2023-04-05T05:49:00;102371.0;;;7.75;47.1
61676;BME280;47574;52.090;5.244;2023-04-05T05:52:13;102370.0;;;7.96;46.69
61676;BME280;47574;52.090;5.244;2023-04-05T05:53:49;102371.0;;;8.14;46.4
61676;BME280;47574;52.090;5.244;2023-04-05T05:55:25;102373.0;;;8.06;46.54
61676;BME280;47574;52.090;5.244;2023-04-05T05:58:38;102374.0;;;8.16;46.48
61676;BME280;47574;52.090;5.244;2023-04-05T06:00:15;102372.0;;;8.02;46.67
61676;BME280;47574;52.090;5.244;2023-04-05T06:01:53;102372.0;;;8.34;46.18
61676;BME280;47574;52.090;5.244;2023-04-05T06:05:06;102372.0;;;8.18;46.23
61676;BME280;47574;52.090;5.244;2023-04-05T06:06:42;102371.0;;;8.43;46.08
61676;BME280;47574;52.090;5.244;2023-04-05T06:08:18;102380.0;;;8.45;45.75
61676;BME280;47574;52.090;5.244;2023-04-05T06:09:54;102380.0;;;8.42;46.03
61676;BME280;47574;52.090;5.244;2023-04-05T06:13:06;102377.0;;;8.39;46.18
61676;BME280;47574;52.090;5.244;2023-04-05T06:14:43;102377.0;;;8.64;45.55
61676;BME280;47574;52.090;5.244;2023-04-05T06:16:19;102380.0;;;8.96;45.01
61676;BME280;47574;52.090;5.244;2023-04-05T06:19:31;102380.0;;;9.06;44.7
61676;BME280;47574;52.090;5.244;2023-04-05T06:21:07;102378.0;;;8.86;44.86
61676;BME280;47574;52.090;5.244;2023-04-05T06:22:43;102380.0;;;8.82;44.8
61676;BME280;47574;52.090;5.244;2023-04-05T06:25:56;102384.0;;;8.89;44.76
61676;BME280;47574;52.090;5.244;2023-04-05T06:27:32;102377.0;;;9.43;43.9
61676;BME280;47574;52.090;5.244;2023-04-05T06:29:08;102376.0;;;9.14;44.3
61676;BME280;47574;52.090;5.244;2023-04-05T06:32:20;102372.0;;;8.31;45.79
61676;BME280;47574;52.090;5.244;2023-04-05T06:33:56;102373.0;;;7.75;46.83
61676;BME280;47574;52.090;5.244;2023-04-05T06:35:32;102375.0;;;7.69;47.09
61676;BME280;47574;52.090;5.244;2023-04-05T06:37:09;102373.0;;;7.17;48.82
61676;BME280;47574;52.090;5.244;2023-04-05T06:40:21;102380.0;;;7.15;48.99
61676;BME280;47574;52.090;5.244;2023-04-05T06:41:57;102374.0;;;7.32;48.82
61676;BME280;47574;52.090;5.244;2023-04-05T06:43:33;102377.0;;;8.25;47.09
61676;BME280;47574;52.090;5.244;2023-04-05T06:46:46;102376.0;;;8.23;46.2
61676;BME280;47574;52.090;5.244;2023-04-05T06:48:23;102370.0;;;7.86;46.63
61676;BME280;47574;52.090;5.244;2023-04-05T06:49:59;102373.0;;;7.61;47.45
61676;BME280;47574;52.090;5.244;2023-04-05T06:53:11;102371.0;;;7.46;48.41
61676;BME280;47574;52.090;5.244;2023-04-05T06:54:47;102371.0;;;7.69;48.3
61676;BME280;47574;52.090;5.244;2023-04-05T06:56:23;102364.0;;;7.79;47.72
61676;BME280;47574;52.090;5.244;2023-04-05T06:57:59;102367.0;;;8.56;46.47
61676;BME280;47574;52.090;5.244;2023-04-05T07:01:12;102374.0;;;8.97;45.66
61676;BME280;47574;52.090;5.244;2023-04-05T07:02:48;102371.0;;;7.86;47.87
61676;BME280;47574;52.090;5.244;2023-04-05T07:04:24;102376.0;;;7.68;48.56
61676;BME280;47574;52.090;5.244;2023-04-05T07:07:37;102374.0;;;7.55;49.1
61676;BME280;47574;52.090;5.244;2023-04-05T07:09:13;102373.0;;;7.96;48.33
61676;BME280;47574;52.090;5.244;2023-04-05T07:10:50;102377.0;;;8.45;46.28
61676;BME280;47574;52.090;5.244;2023-04-05T07:14:03;102377.0;;;9.34;44.77
61676;BME280;47574;52.090;5.244;2023-04-05T07:15:39;102370.0;;;9.63;43.95
61676;BME280;47574;52.090;5.244;2023-04-05T07:17:15;102367.0;;;9.89;42.8
61676;BME280;47574;52.090;5.244;2023-04-05T07:20:28;102369.0;;;10.26;41.72
61676;BME280;47574;52.090;5.244;2023-04-05T07:22:04;102368.0;;;10.25;41.63
61676;BME280;47574;52.090;5.244;2023-04-05T07:23:40;102365.0;;;10.56;41.48
61676;BME280;47574;52.090;5.244;2023-04-05T07:25:16;102365.0;;;10.65;40.54
61676;BME280;47574;52.090;5.244;2023-04-05T07:28:28;102362.0;;;10.41;40.26
61676;BME280;47574;52.090;5.244;2023-04-05T07:30:06;102367.0;;;10.37;40.46
61676;BME280;47574;52.090;5.244;2023-04-05T07:31:42;102366.0;;;10.5;40.11
61676;BME280;47574;52.090;5.244;2023-04-05T07:34:55;102365.0;;;10.67;39.71
61676;BME280;47574;52.090;5.244;2023-04-05T07:36:31;102362.0;;;10.1;40.96
61676;BME280;47574;52.090;5.244;2023-04-05T07:38:07;102358.0;;;10.64;40.1
61676;BME280;47574;52.090;5.244;2023-04-05T07:41:20;102361.0;;;10.96;39.53
61676;BME280;47574;52.090;5.244;2023-04-05T07:42:55;102356.0;;;11.26;39.54
61676;BME280;47574;52.090;5.244;2023-04-05T07:44:32;102356.0;;;11.31;38.68
61676;BME280;47574;52.090;5.244;2023-04-05T07:46:08;102355.0;;;10.56;39.6
61676;BME280;47574;52.090;5.244;2023-04-05T07:49:23;102355.0;;;10.49;40.33
61676;BME280;47574;52.090;5.244;2023-04-05T07:51:02;102355.0;;;10.41;40.42
61676;BME280;47574;52.090;5.244;2023-04-05T07:52:38;102355.0;;;10.49;39.68
61676;BME280;47574;52.090;5.244;2023-04-05T07:55:50;102357.0;;;11.26;39.08
61676;BME280;47574;52.090;5.244;2023-04-05T07:57:27;102355.0;;;11.62;38.31
61676;BME280;47574;52.090;5.244;2023-04-05T07:59:04;102348.0;;;11.83;38.24
61676;BME280;47574;52.090;5.244;2023-04-05T08:02:16;102353.0;;;11.97;37.6
61676;BME280;47574;52.090;5.244;2023-04-05T08:03:53;102355.0;;;12.02;37.53
61676;BME280;47574;52.090;5.244;2023-04-05T08:05:29;102350.0;;;12.05;37.11
61676;BME280;47574;52.090;5.244;2023-04-05T08:07:05;102351.0;;;12.16;37.22
61676;BME280;47574;52.090;5.244;2023-04-05T08:10:19;102352.0;;;12.35;36.99
61676;BME280;47574;52.090;5.244;2023-04-05T08:11:55;102352.0;;;12.39;37.06
61676;BME280;47574;52.090;5.244;2023-04-05T08:13:31;102350.0;;;12.41;36.86
61676;BME280;47574;52.090;5.244;2023-04-05T08:16:44;102348.0;;;12.43;36.46
61676;BME280;47574;52.090;5.244;2023-04-05T08:18:20;102349.0;;;12.57;36.49
61676;BME280;47574;52.090;5.244;2023-04-05T08:19:58;102350.0;;;12.77;36.47
61676;BME280;47574;52.090;5.244;2023-04-05T08:23:10;102351.0;;;12.91;35.28
61676;BME280;47574;52.090;5.244;2023-04-05T08:24:46;102348.0;;;12.7;34.5
61676;BME280;47574;52.090;5.244;2023-04-05T08:26:22;102348.0;;;12.99;34.36
61676;BME280;47574;52.090;5.244;2023-04-05T08:27:58;102345.0;;;13.04;33.36
61676;BME280;47574;52.090;5.244;2023-04-05T08:31:10;102346.0;;;13.2;32.78
61676;BME280;47574;52.090;5.244;2023-04-05T08:32:46;102343.0;;;13.14;33.17
61676;BME280;47574;52.090;5.244;2023-04-05T08:34:23;102342.0;;;13.16;33.14
61676;BME280;47574;52.090;5.244;2023-04-05T08:37:38;102344.0;;;13.39;33.33
61676;BME280;47574;52.090;5.244;2023-04-05T08:39:15;102340.0;;;13.37;32.56
61676;BME280;47574;52.090;5.244;2023-04-05T08:40:51;102332.0;;;13.55;31.2
61676;BME280;47574;52.090;5.244;2023-04-05T08:44:09;102330.0;;;13.68;30.98
61676;BME280;47574;52.090;5.244;2023-04-05T08:45:48;102330.0;;;13.66;31.73
61676;BME280;47574;52.090;5.244;2023-04-05T08:47:27;102326.0;;;13.73;31.14
61676;BME280;47574;52.090;5.244;2023-04-05T08:49:04;102325.0;;;13.85;31.19
61676;BME280;47574;52.090;5.244;2023-04-05T08:52:25;102323.0;;;14.12;30.32
61676;BME280;47574;52.090;5.244;2023-04-05T08:54:01;102320.0;;;14.14;30.94
61676;BME280;47574;52.090;5.244;2023-04-05T08:55:38;102330.0;;;13.77;31.23
61676;BME280;47574;52.090;5.244;2023-04-05T08:57:15;102325.0;;;13.98;30.11
61676;BME280;47574;52.090;5.244;2023-04-05T09:00:36;102325.0;;;13.6;30.66
61676;BME280;47574;52.090;5.244;2023-04-05T09:02:15;102324.0;;;13.95;30.03
61676;BME280;47574;52.090;5.244;2023-04-05T09:03:53;102330.0;;;14.14;27.91
61676;BME280;47574;52.090;5.244;2023-04-05T09:07:12;102328.0;;;14.2;27.37
61676;BME280;47574;52.090;5.244;2023-04-05T09:08:49;102324.0;;;13.93;28.11
61676;BME280;47574;52.090;5.244;2023-04-05T09:10:26;102321.0;;;13.8;28.8
61676;BME280;47574;52.090;5.244;2023-04-05T09:12:04;102321.0;;;13.61;29.17
61676;BME280;47574;52.090;5.244;2023-04-05T09:15:19;102323.0;;;14.01;29.09
61676;BME280;47574;52.090;5.244;2023-04-05T09:16:57;102318.0;;;14.15;29.17
61676;BME280;47574;52.090;5.244;2023-04-05T09:18:35;102317.0;;;13.9;30.03
61676;BME280;47574;52.090;5.244;2023-04-05T09:22:04;102318.0;;;14.22;30.12
61676;BME280;47574;52.090;5.244;2023-04-05T09:23:50;102318.0;;;14.06;29.87
61676;BME280;47574;52.090;5.244;2023-04-05T09:25:35;102317.0;;;14.19;30.25
61676;BME280;47574;52.090;5.244;2023-04-05T09:27:13;102318.0;;;14.51;30.33
61676;BME280;47574;52.090;5.244;2023-04-05T09:28:50;102313.0;;;14.42;28.98
61676;BME280;47574;52.090;5.244;2023-04-05T09:32:03;102312.0;;;14.46;28.93
61676;BME280;47574;52.090;5.244;2023-04-05T09:33:41;102311.0;;;14.55;28.88
61676;BME280;47574;52.090;5.244;2023-04-05T09:35:18;102310.0;;;14.65;29.26
61676;BME280;47574;52.090;5.244;2023-04-05T09:38:48;102307.0;;;14.65;29.45
61676;BME280;47574;52.090;5.244;2023-04-05T09:40:39;102309.0;;;14.54;28.0
61676;BME280;47574;52.090;5.244;2023-04-05T09:42:17;102303.0;;;14.64;28.35
61676;BME280;47574;52.090;5.244;2023-04-05T09:43:54;102305.0;;;14.5;29.09
61676;BME280;47574;52.090;5.244;2023-04-05T09:45:37;102302.0;;;14.62;28.54
61676;BME280;47574;52.090;5.244;2023-04-05T09:48:51;102300.0;;;14.77;28.45
61676;BME280;47574;52.090;5.244;2023-04-05T09:50:27;102301.0;;;14.52;28.62
61676;BME280;47574;52.090;5.244;2023-04-05T09:52:03;102300.0;;;14.54;29.16
61676;BME280;47574;52.090;5.244;2023-04-05T09:55:32;102299.0;;;14.63;28.98
61676;BME280;47574;52.090;5.244;2023-04-05T09:57:09;102299.0;;;14.66;28.84
61676;BME280;47574;52.090;5.244;2023-04-05T09:58:49;102300.0;;;14.71;29.16
61676;BME280;47574;52.090;5.244;2023-04-05T10:00:27;102297.0;;;15.09;29.23
61676;BME280;47574;52.090;5.244;2023-04-05T10:02:04;102299.0;;;14.91;28.87
61676;BME280;47574;52.090;5.244;2023-04-05T10:05:23;102297.0;;;14.91;28.65
61676;BME280;47574;52.090;5.244;2023-04-05T10:06:59;102289.0;;;14.97;28.27
61676;BME280;47574;52.090;5.244;2023-04-05T10:08:35;102288.0;;;15.06;28.53
61676;BME280;47574;52.090;5.244;2023-04-05T10:11:49;102286.0;;;15.22;28.8
61676;BME280;47574;52.090;5.244;2023-04-05T10:13:26;102287.0;;;15.16;28.38
61676;BME280;47574;52.090;5.244;2023-04-05T10:15:04;102285.0;;;15.39;28.91
61676;BME280;47574;52.090;5.244;2023-04-05T10:18:41;102282.0;;;15.01;29.12
61676;BME280;47574;52.090;5.244;2023-04-05T10:20:22;102278.0;;;14.94;29.45
61676;BME280;47574;52.090;5.244;2023-04-05T10:22:01;102271.0;;;15.21;29.11
61676;BME280;47574;52.090;5.244;2023-04-05T10:23:43;102270.0;;;15.22;29.85
61676;BME280;47574;52.090;5.244;2023-04-05T10:25:26;102266.0;;;15.72;29.26
61676;BME280;47574;52.090;5.244;2023-04-05T10:27:29;102270.0;;;15.68;28.87
61676;BME280;47574;52.090;5.244;2023-04-05T10:30:58;102266.0;;;15.5;28.44
61676;BME280;47574;52.090;5.244;2023-04-05T10:32:47;102262.0;;;15.38;28.5
61676;BME280;47574;52.090;5.244;2023-04-05T10:34:40;102264.0;;;15.35;28.76
61676;BME280;47574;52.090;5.244;2023-04-05T10:36:25;102258.0;;;15.25;28.59
61676;BME280;47574;52.090;5.244;2023-04-05T10:38:23;102264.0;;;15.54;29.17
61676;BME280;47574;52.090;5.244;2023-04-05T10:40:02;102257.0;;;15.73;29.12
61676;BME280;47574;52.090;5.244;2023-04-05T10:43:24;102259.0;;;15.78;29.39
61676;BME280;47574;52.090;5.244;2023-04-05T10:45:02;102258.0;;;15.8;29.48
61676;BME280;47574;52.090;5.244;2023-04-05T10:46:42;102261.0;;;16.09;29.19
61676;BME280;47574;52.090;5.244;2023-04-05T10:48:33;102253.0;;;15.9;28.76
61676;BME280;47574;52.090;5.244;2023-04-05T10:50:19;102252.0;;;15.48;29.57
61676;BME280;47574;52.090;5.244;2023-04-05T10:53:35;102255.0;;;15.67;29.39
61676;BME280;47574;52.090;5.244;2023-04-05T10:55:15;102253.0;;;15.66;30.2
61676;BME280;47574;52.090;5.244;2023-04-05T10:56:52;102250.0;;;15.92;29.06
61676;BME280;47574;52.090;5.244;2023-04-05T11:00:07;102248.0;;;15.92;28.66
61676;BME280;47574;52.090;5.244;2023-04-05T11:01:46;102250.0;;;15.99;28.75
61676;BME280;47574;52.090;5.244;2023-04-05T11:03:55;102246.0;;;15.92;29.17
61676;BME280;47574;52.090;5.244;2023-04-05T11:05:32;102244.0;;;15.99;28.82
61676;BME280;47574;52.090;5.244;2023-04-05T11:07:10;102238.0;;;16.32;28.65